Home   Weather   Russia   Syktyvkar   Past weeks
Flag for Russia

Past Weather in Syktyvkar, Russia — Yesterday and Last 2 Weeks

Currently: 75 °F. Passing clouds. (Weather station: Syktyvkar Airport, Russia). See more current weather

Past Weather in Syktyvkar — Graph

°F

Syktyvkar Temperature Yesterday

Maximum temperature yesterday: 82 °F (at 3:00 pm)
Minimum temperature yesterday: 61 °F (at 2:30 am)
Average temperature yesterday: 73 °F

High & Low Weather Summary for the Past Weeks

 TemperatureHumidityPressure
High86 °F (May 13, 3:00 pm)100% (May 1, 3:30 am)30.42 "Hg (May 1, 3:30 am)
Low23 °F (May 3, 1:00 am)15% (May 13, 3:30 pm)29.30 "Hg (May 1, 8:00 am)
Average51 °F62%29.90 "Hg
* Reported Apr 30 10:00 am — May 15 10:30 am, Syktyvkar. Weather by CustomWeather, © 2021

Note: Actual official high and low records may vary slightly from our data, if they occured in-between our weather recording intervals... More about our weather records

Syktyvkar Weather History for the Previous 24 Hours

Scroll right to see more
 ConditionsComfort  
Time TempWeatherWind HumidityBarometerVisibility
10:30 am
Sat, May 15
77 °FSunny.10 mph28%29.98 "Hg10 mi
10:00 am75 °FPassing clouds.8 mph29%29.98 "HgN/A
9:30 am75 °FPassing clouds.8 mph29%29.98 "HgN/A
9:00 am73 °FSunny.6 mph36%29.95 "Hg10 mi
8:30 am72 °FSunny.6 mph44%29.95 "Hg10 mi
8:00 am70 °FSunny.6 mph50%29.98 "Hg10 mi
7:30 am66 °FSunny.6 mph52%29.98 "Hg10 mi
7:00 am66 °FSunny.6 mph56%29.98 "Hg10 mi
6:30 am63 °FSunny.6 mph64%29.95 "Hg10 mi
6:00 am59 °FSunny.3 mph72%29.98 "Hg10 mi
5:30 am61 °FSunny.3 mph63%29.95 "Hg10 mi
5:00 am57 °FSunny.3 mph72%29.95 "Hg10 mi
4:30 am54 °FSunny.6 mph82%29.95 "Hg10 mi
4:00 am52 °FSunny.3 mph88%29.95 "Hg10 mi
3:30 am50 °FSunny.3 mph88%29.95 "Hg10 mi
2:30 am50 °FClear.3 mph94%29.95 "Hg10 mi
2:00 am52 °FClear.3 mph82%29.95 "Hg10 mi
1:30 am55 °FPassing clouds.1 mph77%29.95 "HgN/A
1:00 am61 °FPassing clouds.3 mph68%29.95 "HgN/A
12:30 am63 °FSprinkles. Passing clouds.3 mph64%29.95 "HgN/A
12:00 am63 °FPassing clouds.6 mph59%29.95 "HgN/A
11:30 pm
Fri, May 14
64 °FPassing clouds.3 mph56%29.95 "HgN/A
11:00 pm66 °FPassing clouds.1 mph52%29.95 "HgN/A
10:30 pm66 °FPassing clouds.3 mph52%29.95 "HgN/A
10:00 pm68 °FPassing clouds.3 mph49%29.95 "HgN/A
9:30 pm70 °FPassing clouds.10 mph43%29.95 "HgN/A
9:00 pm70 °FThunderstorms. Passing clouds.13 mph50%29.95 "HgN/A
8:30 pm72 °FThunderstorms. Passing clouds.1 mph47%29.95 "HgN/A
8:00 pm70 °FScattered clouds.1 mph50%29.95 "HgN/A
7:30 pm75 °FScattered clouds.3 mph39%29.95 "HgN/A
7:00 pm77 °FSunny.3 mph36%29.95 "Hg10 mi
6:30 pm79 °FPassing clouds.8 mph34%29.95 "HgN/A
6:00 pm79 °FPassing clouds.8 mph34%29.95 "HgN/A
5:30 pm81 °FPassing clouds.8 mph32%29.95 "HgN/A
5:00 pm81 °FScattered clouds.10 mph32%29.95 "HgN/A
4:30 pm81 °FScattered clouds.10 mph32%29.95 "HgN/A
4:00 pm82 °FScattered clouds.10 mph30%29.95 "HgN/A
3:30 pm82 °FScattered clouds.10 mph32%29.98 "HgN/A
3:00 pm82 °FScattered clouds.10 mph30%29.98 "HgN/A
2:30 pm81 °FScattered clouds.10 mph32%29.98 "HgN/A
2:00 pm81 °FScattered clouds.13 mph32%29.98 "HgN/A
1:30 pm81 °FScattered clouds.13 mph32%30.01 "HgN/A
1:00 pm79 °FScattered clouds.10 mph37%30.01 "HgN/A
12:30 pm79 °FScattered clouds.13 mph39%30.01 "HgN/A
12:00 pm81 °FScattered clouds.13 mph34%30.01 "HgN/A
Weather by CustomWeather, © 2021

See weather overview